sensor_id;sensor_type;location;lat;lon;timestamp;pressure;altitude;pressure_sealevel;temperature;humidity
49529;BME280;35423;37.320;-121.762;2023-07-02T00:00:50;99440.27;;;50.84;5.01
49529;BME280;35423;37.320;-121.762;2023-07-02T00:03:18;99440.03;;;51.27;5.06
49529;BME280;35423;37.320;-121.762;2023-07-02T00:05:43;99444.44;;;51.17;5.09
49529;BME280;35423;37.320;-121.762;2023-07-02T00:08:15;99443.63;;;51.13;5.23
49529;BME280;35423;37.320;-121.762;2023-07-02T00:10:42;99442.17;;;51.16;5.29
49529;BME280;35423;37.320;-121.762;2023-07-02T00:13:09;99443.27;;;50.86;5.10
49529;BME280;35423;37.320;-121.762;2023-07-02T00:15:41;99443.34;;;51.01;5.23
49529;BME280;35423;37.320;-121.762;2023-07-02T00:18:02;99442.84;;;50.85;5.31
49529;BME280;35423;37.320;-121.762;2023-07-02T00:20:27;99442.09;;;50.75;5.31
49529;BME280;35423;37.320;-121.762;2023-07-02T00:22:53;99441.77;;;50.59;5.27
49529;BME280;35423;37.320;-121.762;2023-07-02T00:25:19;99440.91;;;50.50;5.33
49529;BME280;35423;37.320;-121.762;2023-07-02T00:27:43;99438.10;;;50.63;5.34
49529;BME280;35423;37.320;-121.762;2023-07-02T00:30:14;99437.41;;;50.27;5.28
49529;BME280;35423;37.320;-121.762;2023-07-02T00:32:40;99436.67;;;50.26;5.32
49529;BME280;35423;37.320;-121.762;2023-07-02T00:35:08;99434.25;;;50.22;5.24
49529;BME280;35423;37.320;-121.762;2023-07-02T00:37:33;99435.43;;;49.90;5.23
49529;BME280;35423;37.320;-121.762;2023-07-02T00:40:07;99433.94;;;50.11;5.21
49529;BME280;35423;37.320;-121.762;2023-07-02T00:42:31;99432.36;;;49.99;5.19
49529;BME280;35423;37.320;-121.762;2023-07-02T00:45:01;99431.39;;;49.86;5.32
49529;BME280;35423;37.320;-121.762;2023-07-02T00:47:28;99429.66;;;49.72;5.36
49529;BME280;35423;37.320;-121.762;2023-07-02T00:49:59;99431.03;;;50.10;5.36
49529;BME280;35423;37.320;-121.762;2023-07-02T00:52:23;99428.59;;;49.87;5.34
49529;BME280;35423;37.320;-121.762;2023-07-02T00:54:55;99431.31;;;49.78;5.21
49529;BME280;35423;37.320;-121.762;2023-07-02T00:57:21;99426.15;;;49.74;5.13
49529;BME280;35423;37.320;-121.762;2023-07-02T00:59:48;99427.38;;;49.75;5.07
49529;BME280;35423;37.320;-121.762;2023-07-02T01:02:15;99426.12;;;49.67;5.07
49529;BME280;35423;37.320;-121.762;2023-07-02T01:04:43;99425.06;;;49.83;5.23
49529;BME280;35423;37.320;-121.762;2023-07-02T01:07:09;99425.19;;;49.76;5.22
49529;BME280;35423;37.320;-121.762;2023-07-02T01:09:33;99426.22;;;49.44;5.27
49529;BME280;35423;37.320;-121.762;2023-07-02T01:12:02;99426.38;;;49.33;5.25
49529;BME280;35423;37.320;-121.762;2023-07-02T01:14:29;99420.13;;;49.19;5.30
49529;BME280;35423;37.320;-121.762;2023-07-02T01:16:54;99424.79;;;49.05;5.29
49529;BME280;35423;37.320;-121.762;2023-07-02T01:21:50;99423.55;;;49.10;5.48
49529;BME280;35423;37.320;-121.762;2023-07-02T01:24:16;99423.70;;;49.06;5.59
49529;BME280;35423;37.320;-121.762;2023-07-02T01:26:45;99424.22;;;49.00;5.55
49529;BME280;35423;37.320;-121.762;2023-07-02T01:29:15;99423.24;;;48.78;5.45
49529;BME280;35423;37.320;-121.762;2023-07-02T01:31:36;99426.12;;;48.73;5.55
49529;BME280;35423;37.320;-121.762;2023-07-02T01:34:01;99427.63;;;48.88;5.53
49529;BME280;35423;37.320;-121.762;2023-07-02T01:36:29;99426.37;;;48.72;5.67
49529;BME280;35423;37.320;-121.762;2023-07-02T01:38:54;99426.81;;;48.91;5.72
49529;BME280;35423;37.320;-121.762;2023-07-02T01:41:21;99427.56;;;48.80;5.84
49529;BME280;35423;37.320;-121.762;2023-07-02T01:43:47;99425.14;;;48.44;6.00
49529;BME280;35423;37.320;-121.762;2023-07-02T01:46:16;99424.32;;;48.39;5.95
49529;BME280;35423;37.320;-121.762;2023-07-02T01:48:43;99422.21;;;48.60;6.02
49529;BME280;35423;37.320;-121.762;2023-07-02T01:51:11;99422.16;;;48.28;5.90
49529;BME280;35423;37.320;-121.762;2023-07-02T01:53:39;99422.32;;;48.26;6.14
49529;BME280;35423;37.320;-121.762;2023-07-02T01:56:07;99421.20;;;48.68;6.20
49529;BME280;35423;37.320;-121.762;2023-07-02T01:58:34;99420.67;;;48.60;6.18
49529;BME280;35423;37.320;-121.762;2023-07-02T02:00:58;99419.09;;;48.48;6.19
49529;BME280;35423;37.320;-121.762;2023-07-02T02:03:32;99416.42;;;47.86;6.05
49529;BME280;35423;37.320;-121.762;2023-07-02T02:05:49;99417.66;;;47.96;6.06
49529;BME280;35423;37.320;-121.762;2023-07-02T02:08:17;99415.33;;;48.04;6.18
49529;BME280;35423;37.320;-121.762;2023-07-02T02:10:42;99416.11;;;47.93;6.10
49529;BME280;35423;37.320;-121.762;2023-07-02T02:13:12;99418.60;;;47.78;6.17
49529;BME280;35423;37.320;-121.762;2023-07-02T02:15:39;99419.12;;;47.59;6.23
49529;BME280;35423;37.320;-121.762;2023-07-02T02:18:06;99418.23;;;47.53;6.23
49529;BME280;35423;37.320;-121.762;2023-07-02T02:20:32;99414.95;;;47.45;6.39
49529;BME280;35423;37.320;-121.762;2023-07-02T02:22:58;99413.71;;;47.40;6.39
49529;BME280;35423;37.320;-121.762;2023-07-02T02:25:32;99413.66;;;46.84;6.52
49529;BME280;35423;37.320;-121.762;2023-07-02T02:27:57;99412.32;;;47.47;6.69
49529;BME280;35423;37.320;-121.762;2023-07-02T02:30:33;99414.56;;;47.54;6.61
49529;BME280;35423;37.320;-121.762;2023-07-02T02:33:01;99417.84;;;46.86;6.69
49529;BME280;35423;37.320;-121.762;2023-07-02T02:35:30;99418.45;;;46.93;6.81
49529;BME280;35423;37.320;-121.762;2023-07-02T02:37:57;99418.42;;;47.00;6.84
49529;BME280;35423;37.320;-121.762;2023-07-02T02:40:28;99419.16;;;46.38;6.99
49529;BME280;35423;37.320;-121.762;2023-07-02T02:42:57;99421.68;;;46.72;7.12
49529;BME280;35423;37.320;-121.762;2023-07-02T02:45:23;99420.62;;;46.38;7.15
49529;BME280;35423;37.320;-121.762;2023-07-02T02:47:48;99421.19;;;46.45;7.13
49529;BME280;35423;37.320;-121.762;2023-07-02T02:50:15;99421.09;;;46.33;7.18
49529;BME280;35423;37.320;-121.762;2023-07-02T02:52:43;99420.59;;;46.13;7.39
49529;BME280;35423;37.320;-121.762;2023-07-02T02:55:16;99424.02;;;45.75;7.52
49529;BME280;35423;37.320;-121.762;2023-07-02T02:57:41;99422.20;;;45.84;7.60
49529;BME280;35423;37.320;-121.762;2023-07-02T03:00:08;99429.40;;;45.75;7.66
49529;BME280;35423;37.320;-121.762;2023-07-02T03:02:34;99431.58;;;45.67;7.70
49529;BME280;35423;37.320;-121.762;2023-07-02T03:04:59;99434.32;;;45.73;7.52
49529;BME280;35423;37.320;-121.762;2023-07-02T03:07:28;99437.40;;;45.88;7.45
49529;BME280;35423;37.320;-121.762;2023-07-02T03:09:53;99440.92;;;45.30;7.48
49529;BME280;35423;37.320;-121.762;2023-07-02T03:12:22;99444.82;;;45.37;7.52
49529;BME280;35423;37.320;-121.762;2023-07-02T03:14:50;99447.81;;;45.02;7.53
49529;BME280;35423;37.320;-121.762;2023-07-02T03:17:16;99448.12;;;45.10;7.61
49529;BME280;35423;37.320;-121.762;2023-07-02T03:19:44;99450.67;;;45.02;7.65
49529;BME280;35423;37.320;-121.762;2023-07-02T03:22:11;99453.88;;;44.94;7.72
49529;BME280;35423;37.320;-121.762;2023-07-02T03:24:36;99457.86;;;44.80;7.84
49529;BME280;35423;37.320;-121.762;2023-07-02T03:27:02;99458.59;;;44.89;7.95
49529;BME280;35423;37.320;-121.762;2023-07-02T03:29:27;99461.50;;;44.78;8.08
49529;BME280;35423;37.320;-121.762;2023-07-02T03:31:53;99462.57;;;44.81;8.15
49529;BME280;35423;37.320;-121.762;2023-07-02T03:34:20;99462.54;;;44.43;8.33
49529;BME280;35423;37.320;-121.762;2023-07-02T03:36:48;99464.69;;;44.55;8.51
49529;BME280;35423;37.320;-121.762;2023-07-02T03:39:13;99465.43;;;44.20;8.64
49529;BME280;35423;37.320;-121.762;2023-07-02T03:41:39;99466.98;;;44.02;8.74
49529;BME280;35423;37.320;-121.762;2023-07-02T03:44:04;99468.40;;;44.14;8.79
49529;BME280;35423;37.320;-121.762;2023-07-02T03:46:31;99469.58;;;44.24;8.82
49529;BME280;35423;37.320;-121.762;2023-07-02T03:48:59;99467.62;;;44.11;8.92
49529;BME280;35423;37.320;-121.762;2023-07-02T03:51:30;99467.81;;;43.75;9.03
49529;BME280;35423;37.320;-121.762;2023-07-02T03:53:58;99468.64;;;43.81;9.19
49529;BME280;35423;37.320;-121.762;2023-07-02T03:56:24;99464.84;;;43.70;9.31
49529;BME280;35423;37.320;-121.762;2023-07-02T03:58:49;99468.35;;;43.57;9.37
49529;BME280;35423;37.320;-121.762;2023-07-02T04:01:14;99469.41;;;43.43;9.45
49529;BME280;35423;37.320;-121.762;2023-07-02T04:03:47;99472.52;;;43.37;9.48
49529;BME280;35423;37.320;-121.762;2023-07-02T04:06:05;99476.23;;;43.27;9.60
49529;BME280;35423;37.320;-121.762;2023-07-02T04:08:32;99477.58;;;43.11;9.76
49529;BME280;35423;37.320;-121.762;2023-07-02T04:10:59;99481.28;;;42.96;9.85
49529;BME280;35423;37.320;-121.762;2023-07-02T04:13:27;99481.85;;;42.85;9.95
49529;BME280;35423;37.320;-121.762;2023-07-02T04:15:52;99486.31;;;43.28;9.98
49529;BME280;35423;37.320;-121.762;2023-07-02T04:18:19;99486.87;;;43.16;10.05
49529;BME280;35423;37.320;-121.762;2023-07-02T04:20:45;99486.65;;;43.04;10.09
49529;BME280;35423;37.320;-121.762;2023-07-02T04:23:14;99487.53;;;42.88;10.19
49529;BME280;35423;37.320;-121.762;2023-07-02T04:25:39;99491.02;;;42.29;10.33
49529;BME280;35423;37.320;-121.762;2023-07-02T04:28:07;99491.09;;;42.66;10.21
49529;BME280;35423;37.320;-121.762;2023-07-02T04:30:32;99491.02;;;42.46;10.19
49529;BME280;35423;37.320;-121.762;2023-07-02T04:33:01;99490.91;;;42.10;10.30
49529;BME280;35423;37.320;-121.762;2023-07-02T04:35:27;99493.22;;;42.13;10.39
49529;BME280;35423;37.320;-121.762;2023-07-02T04:37:58;99493.02;;;41.99;10.56
49529;BME280;35423;37.320;-121.762;2023-07-02T04:40:24;99493.24;;;42.18;10.68
49529;BME280;35423;37.320;-121.762;2023-07-02T04:42:55;99497.30;;;42.01;10.79
49529;BME280;35423;37.320;-121.762;2023-07-02T04:45:21;99499.65;;;41.82;10.69
49529;BME280;35423;37.320;-121.762;2023-07-02T04:47:49;99503.56;;;41.71;10.64
49529;BME280;35423;37.320;-121.762;2023-07-02T04:50:17;99507.15;;;41.61;10.57
49529;BME280;35423;37.320;-121.762;2023-07-02T04:52:41;99510.01;;;41.23;10.62
49529;BME280;35423;37.320;-121.762;2023-07-02T04:55:07;99515.81;;;41.34;10.61
49529;BME280;35423;37.320;-121.762;2023-07-02T04:57:37;99517.89;;;41.46;10.69
49529;BME280;35423;37.320;-121.762;2023-07-02T05:00:05;99525.62;;;41.29;10.81
49529;BME280;35423;37.320;-121.762;2023-07-02T05:02:30;99528.77;;;40.89;10.87
49529;BME280;35423;37.320;-121.762;2023-07-02T05:04:57;99527.41;;;40.97;10.86
49529;BME280;35423;37.320;-121.762;2023-07-02T05:07:24;99533.31;;;41.03;10.99
49529;BME280;35423;37.320;-121.762;2023-07-02T05:09:52;99532.22;;;40.89;11.00
49529;BME280;35423;37.320;-121.762;2023-07-02T05:12:16;99532.39;;;40.50;11.08
49529;BME280;35423;37.320;-121.762;2023-07-02T05:14:44;99533.07;;;40.85;11.20
49529;BME280;35423;37.320;-121.762;2023-07-02T05:17:10;99532.58;;;40.25;11.36
49529;BME280;35423;37.320;-121.762;2023-07-02T05:19:39;99535.69;;;40.38;11.51
49529;BME280;35423;37.320;-121.762;2023-07-02T05:22:04;99534.94;;;40.02;11.64
49529;BME280;35423;37.320;-121.762;2023-07-02T05:24:42;99541.75;;;39.94;11.71
49529;BME280;35423;37.320;-121.762;2023-07-02T05:27:09;99542.18;;;40.03;11.77
49529;BME280;35423;37.320;-121.762;2023-07-02T05:29:43;99542.11;;;40.17;11.83
49529;BME280;35423;37.320;-121.762;2023-07-02T05:32:08;99539.74;;;39.76;11.90
49529;BME280;35423;37.320;-121.762;2023-07-02T05:34:34;99538.53;;;39.92;11.91
49529;BME280;35423;37.320;-121.762;2023-07-02T05:36:59;99540.07;;;39.36;11.92
49529;BME280;35423;37.320;-121.762;2023-07-02T05:39:26;99540.04;;;39.52;11.96
49529;BME280;35423;37.320;-121.762;2023-07-02T05:42:00;99540.00;;;39.24;12.01
49529;BME280;35423;37.320;-121.762;2023-07-02T05:44:28;99541.80;;;39.85;12.07
49529;BME280;35423;37.320;-121.762;2023-07-02T05:46:54;99540.11;;;39.52;12.11
49529;BME280;35423;37.320;-121.762;2023-07-02T05:49:19;99544.57;;;39.19;12.12
49529;BME280;35423;37.320;-121.762;2023-07-02T05:51:46;99545.00;;;39.35;12.07
49529;BME280;35423;37.320;-121.762;2023-07-02T05:54:11;99545.06;;;39.70;12.06
49529;BME280;35423;37.320;-121.762;2023-07-02T05:56:38;99542.06;;;39.28;12.09
49529;BME280;35423;37.320;-121.762;2023-07-02T05:59:07;99540.47;;;39.09;12.19
49529;BME280;35423;37.320;-121.762;2023-07-02T06:01:36;99541.51;;;38.99;12.23
49529;BME280;35423;37.320;-121.762;2023-07-02T06:04:02;99539.67;;;38.88;12.34
49529;BME280;35423;37.320;-121.762;2023-07-02T06:06:33;99538.28;;;38.78;12.41
49529;BME280;35423;37.320;-121.762;2023-07-02T06:08:56;99540.84;;;38.67;12.55
49529;BME280;35423;37.320;-121.762;2023-07-02T06:11:23;99543.18;;;38.55;12.62
49529;BME280;35423;37.320;-121.762;2023-07-02T06:13:48;99541.79;;;38.69;12.68
49529;BME280;35423;37.320;-121.762;2023-07-02T06:16:14;99541.36;;;38.30;12.70
49529;BME280;35423;37.320;-121.762;2023-07-02T06:18:43;99544.25;;;38.45;12.71
49529;BME280;35423;37.320;-121.762;2023-07-02T06:21:12;99542.58;;;38.34;12.75
49529;BME280;35423;37.320;-121.762;2023-07-02T06:23:43;99541.31;;;38.23;12.81
49529;BME280;35423;37.320;-121.762;2023-07-02T06:26:05;99536.97;;;38.08;12.99
49529;BME280;35423;37.320;-121.762;2023-07-02T06:28:35;99533.55;;;38.02;12.97
49529;BME280;35423;37.320;-121.762;2023-07-02T06:31:01;99529.59;;;38.18;12.99
49529;BME280;35423;37.320;-121.762;2023-07-02T06:33:28;99529.04;;;37.85;13.04
49529;BME280;35423;37.320;-121.762;2023-07-02T06:35:53;99528.07;;;38.22;13.08
49529;BME280;35423;37.320;-121.762;2023-07-02T06:38:19;99525.13;;;38.10;13.12
49529;BME280;35423;37.320;-121.762;2023-07-02T06:40:45;99526.07;;;37.82;13.19
49529;BME280;35423;37.320;-121.762;2023-07-02T06:43:13;99527.35;;;37.94;12.97
49529;BME280;35423;37.320;-121.762;2023-07-02T06:45:46;99525.44;;;37.89;12.78
49529;BME280;35423;37.320;-121.762;2023-07-02T06:48:10;99525.54;;;37.78;12.73
49529;BME280;35423;37.320;-121.762;2023-07-02T06:50:43;99523.14;;;37.45;12.70
49529;BME280;35423;37.320;-121.762;2023-07-02T06:53:08;99524.72;;;37.58;12.60
49529;BME280;35423;37.320;-121.762;2023-07-02T06:55:36;99526.54;;;37.50;12.59
49529;BME280;35423;37.320;-121.762;2023-07-02T06:58:02;99528.64;;;37.22;12.60
49529;BME280;35423;37.320;-121.762;2023-07-02T07:00:33;99528.98;;;37.32;12.68
49529;BME280;35423;37.320;-121.762;2023-07-02T07:02:56;99527.23;;;36.96;12.77
49529;BME280;35423;37.320;-121.762;2023-07-02T07:05:22;99527.74;;;37.10;12.85
49529;BME280;35423;37.320;-121.762;2023-07-02T07:07:49;99529.93;;;37.01;12.84
49529;BME280;35423;37.320;-121.762;2023-07-02T07:10:12;99530.58;;;36.90;12.88
49529;BME280;35423;37.320;-121.762;2023-07-02T07:12:38;99526.72;;;36.79;12.94
49529;BME280;35423;37.320;-121.762;2023-07-02T07:15:11;99524.49;;;37.18;13.00
49529;BME280;35423;37.320;-121.762;2023-07-02T07:17:39;99520.89;;;37.11;13.00
49529;BME280;35423;37.320;-121.762;2023-07-02T07:20:05;99520.19;;;37.00;12.95
49529;BME280;35423;37.320;-121.762;2023-07-02T07:22:30;99518.93;;;36.63;13.02
49529;BME280;35423;37.320;-121.762;2023-07-02T07:24:55;99516.86;;;36.77;13.15
49529;BME280;35423;37.320;-121.762;2023-07-02T07:27:20;99514.22;;;36.70;13.24
49529;BME280;35423;37.320;-121.762;2023-07-02T07:29:46;99514.68;;;36.42;13.28
49529;BME280;35423;37.320;-121.762;2023-07-02T07:32:14;99510.18;;;36.58;13.22
49529;BME280;35423;37.320;-121.762;2023-07-02T07:34:40;99507.58;;;36.52;13.18
49529;BME280;35423;37.320;-121.762;2023-07-02T07:37:06;99505.23;;;36.50;13.07
49529;BME280;35423;37.320;-121.762;2023-07-02T07:39:34;99504.89;;;36.42;13.01
49529;BME280;35423;37.320;-121.762;2023-07-02T07:41:58;99501.34;;;36.30;13.00
49529;BME280;35423;37.320;-121.762;2023-07-02T07:44:24;99498.73;;;36.16;13.06
49529;BME280;35423;37.320;-121.762;2023-07-02T07:46:48;99496.57;;;36.09;13.14
49529;BME280;35423;37.320;-121.762;2023-07-02T07:49:18;99496.76;;;36.03;13.23
49529;BME280;35423;37.320;-121.762;2023-07-02T07:51:44;99496.65;;;36.01;13.27
49529;BME280;35423;37.320;-121.762;2023-07-02T07:54:11;99497.16;;;36.19;13.32
49529;BME280;35423;37.320;-121.762;2023-07-02T07:56:38;99498.60;;;35.94;13.31
49529;BME280;35423;37.320;-121.762;2023-07-02T07:59:03;99497.58;;;35.89;13.32
49529;BME280;35423;37.320;-121.762;2023-07-02T08:01:28;99495.63;;;35.84;13.30
49529;BME280;35423;37.320;-121.762;2023-07-02T08:03:56;99493.27;;;36.29;13.27
49529;BME280;35423;37.320;-121.762;2023-07-02T08:06:22;99493.04;;;35.67;13.33
49529;BME280;35423;37.320;-121.762;2023-07-02T08:08:49;99489.67;;;35.58;13.47
49529;BME280;35423;37.320;-121.762;2023-07-02T08:11:16;99484.63;;;35.99;13.67
49529;BME280;35423;37.320;-121.762;2023-07-02T08:13:42;99480.36;;;35.90;13.73
49529;BME280;35423;37.320;-121.762;2023-07-02T08:16:10;99474.62;;;35.54;13.71
49529;BME280;35423;37.320;-121.762;2023-07-02T08:18:41;99472.52;;;35.45;13.77
49529;BME280;35423;37.320;-121.762;2023-07-02T08:21:10;99469.66;;;35.33;13.80
49529;BME280;35423;37.320;-121.762;2023-07-02T08:23:33;99464.30;;;35.25;13.84
49529;BME280;35423;37.320;-121.762;2023-07-02T08:25:59;99463.09;;;35.45;13.89
49529;BME280;35423;37.320;-121.762;2023-07-02T08:28:28;99463.42;;;35.61;13.94
49529;BME280;35423;37.320;-121.762;2023-07-02T08:30:55;99464.57;;;35.31;14.04
49529;BME280;35423;37.320;-121.762;2023-07-02T08:33:20;99466.34;;;35.28;14.04
49529;BME280;35423;37.320;-121.762;2023-07-02T08:35:46;99466.86;;;35.37;14.04
49529;BME280;35423;37.320;-121.762;2023-07-02T08:38:11;99463.67;;;35.00;14.03
49529;BME280;35423;37.320;-121.762;2023-07-02T08:40:38;99460.02;;;35.09;14.08
49529;BME280;35423;37.320;-121.762;2023-07-02T08:43:03;99460.37;;;35.05;14.07
49529;BME280;35423;37.320;-121.762;2023-07-02T08:45:33;99463.53;;;34.77;14.13
49529;BME280;35423;37.320;-121.762;2023-07-02T08:47:56;99465.51;;;34.97;14.21
49529;BME280;35423;37.320;-121.762;2023-07-02T08:50:25;99467.90;;;34.70;14.28
49529;BME280;35423;37.320;-121.762;2023-07-02T08:52:56;99467.38;;;35.10;14.28
49529;BME280;35423;37.320;-121.762;2023-07-02T08:55:18;99466.86;;;34.48;14.30
49529;BME280;35423;37.320;-121.762;2023-07-02T08:57:52;99466.61;;;34.47;14.31
49529;BME280;35423;37.320;-121.762;2023-07-02T09:00:23;99466.52;;;34.67;14.34
49529;BME280;35423;37.320;-121.762;2023-07-02T09:02:47;99462.64;;;34.36;14.38
49529;BME280;35423;37.320;-121.762;2023-07-02T09:05:12;99459.40;;;34.49;14.37
49529;BME280;35423;37.320;-121.762;2023-07-02T09:07:44;99458.82;;;34.88;14.41
49529;BME280;35423;37.320;-121.762;2023-07-02T09:10:06;99458.86;;;34.57;14.52
49529;BME280;35423;37.320;-121.762;2023-07-02T09:12:35;99456.23;;;34.21;14.51
49529;BME280;35423;37.320;-121.762;2023-07-02T09:15:05;99453.47;;;34.43;14.50
49529;BME280;35423;37.320;-121.762;2023-07-02T09:17:33;99453.16;;;34.37;14.51
49529;BME280;35423;37.320;-121.762;2023-07-02T09:20:02;99452.54;;;34.34;14.53
49529;BME280;35423;37.320;-121.762;2023-07-02T09:22:37;99453.01;;;34.48;14.54
49529;BME280;35423;37.320;-121.762;2023-07-02T09:25:02;99450.99;;;34.37;14.58
49529;BME280;35423;37.320;-121.762;2023-07-02T09:27:34;99449.04;;;34.03;14.68
49529;BME280;35423;37.320;-121.762;2023-07-02T09:29:54;99447.33;;;34.17;14.74
49529;BME280;35423;37.320;-121.762;2023-07-02T09:32:26;99445.77;;;33.91;14.78
49529;BME280;35423;37.320;-121.762;2023-07-02T09:34:55;99444.65;;;33.91;14.69
49529;BME280;35423;37.320;-121.762;2023-07-02T09:37:18;99449.03;;;33.92;14.56
49529;BME280;35423;37.320;-121.762;2023-07-02T09:39:53;99451.66;;;33.82;14.52
49529;BME280;35423;37.320;-121.762;2023-07-02T09:42:20;99451.43;;;33.72;14.51
49529;BME280;35423;37.320;-121.762;2023-07-02T09:44:52;99449.18;;;33.37;14.55
49529;BME280;35423;37.320;-121.762;2023-07-02T09:47:17;99447.24;;;33.29;14.54
49529;BME280;35423;37.320;-121.762;2023-07-02T09:49:41;99446.18;;;33.52;14.51
49529;BME280;35423;37.320;-121.762;2023-07-02T09:52:07;99447.60;;;33.49;14.56
49529;BME280;35423;37.320;-121.762;2023-07-02T09:54:35;99447.76;;;33.44;14.63
49529;BME280;35423;37.320;-121.762;2023-07-02T09:57:01;99446.12;;;33.34;14.71
49529;BME280;35423;37.320;-121.762;2023-07-02T09:59:34;99443.50;;;33.52;14.60
49529;BME280;35423;37.320;-121.762;2023-07-02T10:02:10;99441.59;;;33.67;14.56
49529;BME280;35423;37.320;-121.762;2023-07-02T10:06:57;99433.96;;;33.27;14.65
49529;BME280;35423;37.320;-121.762;2023-07-02T10:11:50;99432.84;;;33.15;14.75
49529;BME280;35423;37.320;-121.762;2023-07-02T10:14:16;99430.23;;;33.29;14.71
49529;BME280;35423;37.320;-121.762;2023-07-02T10:16:50;99424.64;;;32.82;14.53
49529;BME280;35423;37.320;-121.762;2023-07-02T10:19:16;99422.67;;;32.96;14.49
49529;BME280;35423;37.320;-121.762;2023-07-02T10:21:40;99423.36;;;33.16;14.51
49529;BME280;35423;37.320;-121.762;2023-07-02T10:24:13;99422.55;;;33.43;14.53
49529;BME280;35423;37.320;-121.762;2023-07-02T10:26:35;99425.36;;;33.13;14.61
49529;BME280;35423;37.320;-121.762;2023-07-02T10:29:02;99426.81;;;32.86;14.67
49529;BME280;35423;37.320;-121.762;2023-07-02T10:31:29;99426.17;;;32.88;14.60
49529;BME280;35423;37.320;-121.762;2023-07-02T10:33:53;99426.96;;;32.83;14.59
49529;BME280;35423;37.320;-121.762;2023-07-02T10:36:19;99429.02;;;33.03;14.59
49529;BME280;35423;37.320;-121.762;2023-07-02T10:38:36;99428.95;;;33.24;14.69
49529;BME280;35423;37.320;-121.762;2023-07-02T10:41:07;99427.90;;;33.20;14.80
49529;BME280;35423;37.320;-121.762;2023-07-02T10:43:33;99427.34;;;33.46;14.85
49529;BME280;35423;37.320;-121.762;2023-07-02T10:45:58;99424.87;;;32.49;14.91
49529;BME280;35423;37.320;-121.762;2023-07-02T10:48:24;99425.72;;;32.92;14.85
49529;BME280;35423;37.320;-121.762;2023-07-02T10:50:49;99422.43;;;32.83;14.90
49529;BME280;35423;37.320;-121.762;2023-07-02T10:53:18;99419.33;;;32.65;15.03
49529;BME280;35423;37.320;-121.762;2023-07-02T10:55:45;99413.67;;;32.82;15.16
49529;BME280;35423;37.320;-121.762;2023-07-02T10:58:13;99409.41;;;32.47;15.22
49529;BME280;35423;37.320;-121.762;2023-07-02T11:00:44;99407.21;;;32.44;15.15
49529;BME280;35423;37.320;-121.762;2023-07-02T11:03:04;99406.91;;;32.62;15.11
49529;BME280;35423;37.320;-121.762;2023-07-02T11:05:31;99406.73;;;32.28;15.13
49529;BME280;35423;37.320;-121.762;2023-07-02T11:10:26;99410.41;;;32.62;15.08
49529;BME280;35423;37.320;-121.762;2023-07-02T11:12:50;99413.53;;;32.53;15.13
49529;BME280;35423;37.320;-121.762;2023-07-02T11:15:17;99414.93;;;32.25;15.14
49529;BME280;35423;37.320;-121.762;2023-07-02T11:17:42;99414.69;;;32.23;15.04
49529;BME280;35423;37.320;-121.762;2023-07-02T11:20:09;99416.32;;;32.40;14.96
49529;BME280;35423;37.320;-121.762;2023-07-02T11:22:37;99420.27;;;32.39;14.93
49529;BME280;35423;37.320;-121.762;2023-07-02T11:25:12;99425.10;;;32.13;15.04
49529;BME280;35423;37.320;-121.762;2023-07-02T11:27:35;99425.93;;;31.76;15.28
49529;BME280;35423;37.320;-121.762;2023-07-02T11:30:01;99421.97;;;32.22;15.43
49529;BME280;35423;37.320;-121.762;2023-07-02T11:32:31;99421.14;;;32.21;15.60
49529;BME280;35423;37.320;-121.762;2023-07-02T11:34:56;99423.54;;;32.15;15.70
49529;BME280;35423;37.320;-121.762;2023-07-02T11:37:24;99423.06;;;31.88;15.78
49529;BME280;35423;37.320;-121.762;2023-07-02T11:39:53;99424.19;;;31.87;15.85
49529;BME280;35423;37.320;-121.762;2023-07-02T11:42:22;99421.04;;;31.84;15.88
49529;BME280;35423;37.320;-121.762;2023-07-02T11:44:53;99426.98;;;31.99;15.97
49529;BME280;35423;37.320;-121.762;2023-07-02T11:47:16;99435.10;;;31.94;16.10
49529;BME280;35423;37.320;-121.762;2023-07-02T11:49:45;99440.65;;;32.30;16.26
49529;BME280;35423;37.320;-121.762;2023-07-02T11:52:11;99441.98;;;31.25;16.45
49529;BME280;35423;37.320;-121.762;2023-07-02T11:54:39;99441.59;;;31.64;16.50
49529;BME280;35423;37.320;-121.762;2023-07-02T11:57:09;99444.25;;;31.80;16.41
49529;BME280;35423;37.320;-121.762;2023-07-02T11:59:39;99445.75;;;31.46;16.46
49529;BME280;35423;37.320;-121.762;2023-07-02T12:02:09;99450.66;;;31.40;16.59
49529;BME280;35423;37.320;-121.762;2023-07-02T12:04:36;99451.74;;;31.53;16.61
49529;BME280;35423;37.320;-121.762;2023-07-02T12:06:56;99450.67;;;31.23;16.58
49529;BME280;35423;37.320;-121.762;2023-07-02T12:09:24;99447.65;;;31.59;16.55
49529;BME280;35423;37.320;-121.762;2023-07-02T12:11:53;99447.90;;;31.01;16.56
49529;BME280;35423;37.320;-121.762;2023-07-02T12:14:19;99447.90;;;31.39;16.60
49529;BME280;35423;37.320;-121.762;2023-07-02T12:16:43;99446.04;;;31.09;16.67
49529;BME280;35423;37.320;-121.762;2023-07-02T12:19:09;99447.46;;;31.35;16.81
49529;BME280;35423;37.320;-121.762;2023-07-02T12:21:37;99443.73;;;31.05;16.86
49529;BME280;35423;37.320;-121.762;2023-07-02T12:24:04;99444.18;;;30.98;16.95
49529;BME280;35423;37.320;-121.762;2023-07-02T12:26:28;99451.78;;;30.95;16.99
49529;BME280;35423;37.320;-121.762;2023-07-02T12:28:54;99461.37;;;31.20;17.06
49529;BME280;35423;37.320;-121.762;2023-07-02T12:31:19;99468.40;;;31.17;17.12
49529;BME280;35423;37.320;-121.762;2023-07-02T12:33:46;99467.67;;;31.36;17.12
49529;BME280;35423;37.320;-121.762;2023-07-02T12:36:11;99464.72;;;31.08;17.10
49529;BME280;35423;37.320;-121.762;2023-07-02T12:38:43;99468.23;;;30.74;17.02
49529;BME280;35423;37.320;-121.762;2023-07-02T12:41:04;99471.38;;;30.70;17.00